createdAt,value
2022-10-11T00:00:37.562Z,66.39
2022-10-11T00:01:39.116Z,66.43
2022-10-11T00:02:40.655Z,66.60
2022-10-11T00:03:42.134Z,66.69
2022-10-11T00:04:43.598Z,66.64
2022-10-11T00:05:45.120Z,66.62
2022-10-11T00:06:47.334Z,66.50
2022-10-11T00:07:48.787Z,66.55
2022-10-11T00:08:50.351Z,66.24
2022-10-11T00:09:51.798Z,66.32
2022-10-11T00:10:57.017Z,66.27
2022-10-11T00:11:58.499Z,66.29
2022-10-11T00:12:59.941Z,66.30
2022-10-11T00:14:01.465Z,66.35
2022-10-11T00:15:03.998Z,66.32
2022-10-11T00:16:09.206Z,66.17
2022-10-11T00:17:10.784Z,66.22
2022-10-11T00:18:12.231Z,66.28
2022-10-11T00:19:13.728Z,66.26
2022-10-11T00:20:15.269Z,66.25
2022-10-11T00:21:16.725Z,66.36
2022-10-11T00:22:18.195Z,66.31
2022-10-11T00:23:19.693Z,66.33
2022-10-11T00:24:21.201Z,66.32
2022-10-11T00:25:22.627Z,66.32
2022-10-11T00:26:24.131Z,66.33
2022-10-11T00:27:25.591Z,66.27
2022-10-11T00:28:27.269Z,66.26
2022-10-11T00:29:28.810Z,66.38
2022-10-11T00:30:30.305Z,66.45
2022-10-11T00:31:35.496Z,66.27
2022-10-11T00:32:37.611Z,66.20
2022-10-11T00:33:39.291Z,66.20
2022-10-11T00:34:40.817Z,66.35
2022-10-11T00:35:42.379Z,66.27
2022-10-11T00:36:44.495Z,66.24
2022-10-11T00:37:46.254Z,66.36
2022-10-11T00:38:47.987Z,66.18
2022-10-11T00:39:49.594Z,66.19
2022-10-11T00:40:51.039Z,66.08
2022-10-11T00:41:52.471Z,66.03
2022-10-11T00:42:53.971Z,66.09
2022-10-11T00:44:11.727Z,66.07
2022-10-11T00:45:42.575Z,66.09
2022-10-11T00:46:55.697Z,66.12
2022-10-11T00:48:01.234Z,66.05
2022-10-11T00:49:06.953Z,65.97
2022-10-11T00:50:08.544Z,65.82
2022-10-11T00:51:32.989Z,65.77
2022-10-11T00:52:35.410Z,65.70
2022-10-11T00:53:36.882Z,65.49
2022-10-11T00:54:39.027Z,65.38
2022-10-11T00:55:41.841Z,65.37
2022-10-11T00:56:43.814Z,65.34
2022-10-11T00:57:46.992Z,65.25
2022-10-11T00:58:48.472Z,65.20
2022-10-11T00:59:51.032Z,65.07
2022-10-11T01:00:53.904Z,65.02
2022-10-11T01:01:55.486Z,65.04
2022-10-11T01:02:56.922Z,64.94
2022-10-11T01:03:58.411Z,64.98
2022-10-11T01:05:18.308Z,65.13
2022-10-11T01:06:21.455Z,65.08
2022-10-11T01:07:22.963Z,65.16
2022-10-11T01:08:24.546Z,65.26
2022-10-11T01:09:26.196Z,65.25
2022-10-11T01:10:27.744Z,65.23
2022-10-11T01:11:29.491Z,65.27
2022-10-11T01:12:31.002Z,65.33
2022-10-11T01:13:41.235Z,65.51
2022-10-11T01:14:58.012Z,65.52
2022-10-11T01:16:05.854Z,65.74
2022-10-11T01:17:13.759Z,65.81
2022-10-11T01:18:15.178Z,65.71
2022-10-11T01:19:25.522Z,65.94
2022-10-11T01:20:36.012Z,66.09
2022-10-11T01:21:37.444Z,66.04
2022-10-11T01:22:54.141Z,66.31
2022-10-11T01:24:04.699Z,66.27
2022-10-11T01:25:08.994Z,66.12
2022-10-11T01:26:13.207Z,66.14
2022-10-11T01:27:33.111Z,66.24
2022-10-11T01:28:37.454Z,66.24
2022-10-11T01:29:48.503Z,66.15
2022-10-11T01:30:50.536Z,66.09
2022-10-11T01:31:56.697Z,66.29
2022-10-11T01:33:00.327Z,66.10
2022-10-11T01:34:23.303Z,66.13
2022-10-11T01:35:27.548Z,66.04
2022-10-11T01:36:33.755Z,66.15
2022-10-11T01:37:35.322Z,66.12
2022-10-11T01:38:47.088Z,66.01
2022-10-11T01:39:49.718Z,66.10
2022-10-11T01:40:53.210Z,66.05
2022-10-11T01:41:55.546Z,66.06
2022-10-11T01:42:57.019Z,65.93
2022-10-11T01:43:59.182Z,65.85
2022-10-11T01:45:00.635Z,65.85
2022-10-11T01:46:02.488Z,65.93
2022-10-11T01:47:04.157Z,65.84
2022-10-11T01:48:09.590Z,65.90
2022-10-11T01:49:11.095Z,65.97
2022-10-11T01:50:33.497Z,65.75
2022-10-11T01:51:36.167Z,65.67
2022-10-11T01:52:37.688Z,65.76
2022-10-11T01:53:54.337Z,65.69
2022-10-11T01:55:11.008Z,65.80
2022-10-11T01:56:12.490Z,65.69
2022-10-11T01:57:25.923Z,65.64
2022-10-11T01:58:27.399Z,65.70
2022-10-11T01:59:28.884Z,65.60
2022-10-11T02:01:05.693Z,65.63
2022-10-11T02:02:25.056Z,65.39
2022-10-11T02:03:34.174Z,65.38
2022-10-11T02:04:44.390Z,65.38
2022-10-11T02:05:55.743Z,65.37
2022-10-11T02:06:58.546Z,65.16
2022-10-11T02:08:03.056Z,65.16
2022-10-11T02:09:08.357Z,65.18
2022-10-11T02:10:17.742Z,65.19
2022-10-11T02:11:20.638Z,65.06
2022-10-11T02:12:28.643Z,64.89
2022-10-11T02:13:32.864Z,64.87
2022-10-11T02:14:35.716Z,64.95
2022-10-11T02:15:38.560Z,64.87
2022-10-11T02:16:43.839Z,64.86
2022-10-11T02:17:47.875Z,64.73
2022-10-11T02:18:50.211Z,64.88
2022-10-11T02:19:52.343Z,64.88
2022-10-11T02:20:54.045Z,64.89
2022-10-11T02:21:56.919Z,64.93
2022-10-11T02:23:07.059Z,64.70
2022-10-11T02:24:09.999Z,64.99
2022-10-11T02:25:12.732Z,64.99
2022-10-11T02:26:14.334Z,65.06
2022-10-11T02:27:16.007Z,64.81
2022-10-11T02:28:18.581Z,64.88
2022-10-11T02:29:20.610Z,64.94
2022-10-11T02:30:22.059Z,64.77
2022-10-11T02:31:23.560Z,64.78
2022-10-11T02:32:25.060Z,64.74
2022-10-11T02:33:27.434Z,64.61
2022-10-11T02:34:31.699Z,64.55
2022-10-11T02:35:34.350Z,64.61
2022-10-11T02:36:47.494Z,64.63
2022-10-11T02:38:03.060Z,64.44
2022-10-11T02:39:08.015Z,64.41
2022-10-11T02:40:11.643Z,64.48
2022-10-11T02:41:15.733Z,64.55
2022-10-11T02:42:21.065Z,64.75
2022-10-11T02:43:30.257Z,64.31
2022-10-11T02:44:35.887Z,64.32
2022-10-11T02:45:37.930Z,64.33
2022-10-11T02:46:39.658Z,64.28
2022-10-11T02:47:41.142Z,64.34
2022-10-11T02:48:42.635Z,64.24
2022-10-11T02:49:44.154Z,64.15
2022-10-11T02:50:45.643Z,64.42
2022-10-11T02:51:47.128Z,64.20
2022-10-11T02:52:48.606Z,64.24
2022-10-11T02:53:50.066Z,64.11
2022-10-11T02:54:51.559Z,64.27
2022-10-11T02:55:53.434Z,64.24
2022-10-11T02:56:54.891Z,64.30
2022-10-11T02:57:56.378Z,64.31
2022-10-11T02:58:57.911Z,64.38
2022-10-11T02:59:59.374Z,64.42
2022-10-11T03:01:00.883Z,64.32
2022-10-11T03:02:02.391Z,64.19
2022-10-11T03:03:03.903Z,64.34
2022-10-11T03:04:05.418Z,64.38
2022-10-11T03:05:06.999Z,64.42
2022-10-11T03:06:09.307Z,64.54
2022-10-11T03:07:10.852Z,64.32
2022-10-11T03:08:12.726Z,64.48
2022-10-11T03:09:14.279Z,64.51
2022-10-11T03:10:15.750Z,64.58
2022-10-11T03:11:17.276Z,64.38
2022-10-11T03:12:18.749Z,64.50
2022-10-11T03:13:20.186Z,64.53
2022-10-11T03:14:21.642Z,64.44
2022-10-11T03:15:23.106Z,64.47
2022-10-11T03:16:24.536Z,64.48
2022-10-11T03:17:42.052Z,64.41
2022-10-11T03:18:43.540Z,64.28
2022-10-11T03:19:45.043Z,64.29
2022-10-11T03:20:46.491Z,64.36
2022-10-11T03:21:47.933Z,64.30
2022-10-11T03:22:49.386Z,64.53
2022-10-11T03:23:50.875Z,64.54
2022-10-11T03:24:52.388Z,64.49
2022-10-11T03:25:53.869Z,64.40
2022-10-11T03:26:55.351Z,64.31
2022-10-11T03:27:56.888Z,64.46
2022-10-11T03:28:58.391Z,64.51
2022-10-11T03:29:59.913Z,64.55
2022-10-11T03:31:01.463Z,64.61
2022-10-11T03:32:03.027Z,64.63
2022-10-11T03:33:04.458Z,64.48
2022-10-11T03:34:05.944Z,64.51
2022-10-11T03:35:07.692Z,64.44
2022-10-11T03:36:09.360Z,64.55
2022-10-11T03:37:11.017Z,64.59
2022-10-11T03:38:13.176Z,64.72
2022-10-11T03:39:14.696Z,64.79
2022-10-11T03:40:16.241Z,64.85
2022-10-11T03:41:17.698Z,64.77
2022-10-11T03:42:19.123Z,64.87
2022-10-11T03:43:20.590Z,64.73
2022-10-11T03:44:22.024Z,64.70
2022-10-11T03:45:23.582Z,64.66
2022-10-11T03:46:25.156Z,64.67
2022-10-11T03:47:26.607Z,64.77
2022-10-11T03:48:28.126Z,64.84
2022-10-11T03:49:29.571Z,64.65
2022-10-11T03:50:31.283Z,64.55
2022-10-11T03:51:32.767Z,64.68
2022-10-11T03:52:34.400Z,64.46
2022-10-11T03:53:35.931Z,64.59
2022-10-11T03:54:37.456Z,64.66
2022-10-11T03:55:40.263Z,64.60
2022-10-11T03:56:41.767Z,64.68
2022-10-11T03:57:43.233Z,64.65
2022-10-11T03:58:44.670Z,64.46
2022-10-11T03:59:46.227Z,64.68
2022-10-11T04:00:47.724Z,64.63
2022-10-11T04:01:49.229Z,64.81
2022-10-11T04:02:50.772Z,64.51
2022-10-11T04:03:54.689Z,64.63
2022-10-11T04:04:56.128Z,64.59
2022-10-11T04:05:57.663Z,64.65
2022-10-11T04:06:59.099Z,64.68
2022-10-11T04:08:00.538Z,64.82
2022-10-11T04:09:02.024Z,64.61
2022-10-11T04:10:03.526Z,64.64
2022-10-11T04:11:05.099Z,64.70
2022-10-11T04:12:06.622Z,64.83
2022-10-11T04:13:09.143Z,64.97
2022-10-11T04:14:10.605Z,65.05
2022-10-11T04:15:15.164Z,65.06
2022-10-11T04:16:16.771Z,64.90
2022-10-11T04:17:18.216Z,65.00
2022-10-11T04:18:19.755Z,64.97
2022-10-11T04:19:21.612Z,64.98
2022-10-11T04:20:23.042Z,64.92
2022-10-11T04:21:24.550Z,64.91
2022-10-11T04:22:26.004Z,64.59
2022-10-11T04:23:27.459Z,64.58
2022-10-11T04:24:29.039Z,64.25
2022-10-11T04:25:30.610Z,64.22
2022-10-11T04:26:32.207Z,64.17
2022-10-11T04:27:33.704Z,64.02
2022-10-11T04:28:35.320Z,64.04
2022-10-11T04:29:36.851Z,63.99
2022-10-11T04:30:38.370Z,63.89
2022-10-11T04:31:40.071Z,63.80
2022-10-11T04:32:41.575Z,63.83
2022-10-11T04:33:43.050Z,63.68
2022-10-11T04:34:44.515Z,63.79
2022-10-11T04:35:46.063Z,63.73
2022-10-11T04:36:49.930Z,63.60
2022-10-11T04:37:51.647Z,63.68
2022-10-11T04:38:56.238Z,63.65
2022-10-11T04:39:57.706Z,63.43
2022-10-11T04:41:05.876Z,63.55
2022-10-11T04:42:07.315Z,63.44
2022-10-11T04:43:08.755Z,63.42
2022-10-11T04:44:10.260Z,63.36
2022-10-11T04:45:11.708Z,63.16
2022-10-11T04:46:13.194Z,63.43
2022-10-11T04:47:14.690Z,63.18
2022-10-11T04:48:16.166Z,63.15
2022-10-11T04:49:17.737Z,63.14
2022-10-11T04:50:19.197Z,63.28
2022-10-11T04:51:20.705Z,63.17
2022-10-11T04:52:25.568Z,63.15
2022-10-11T04:53:27.472Z,63.14
2022-10-11T04:54:28.927Z,63.06
2022-10-11T04:55:30.434Z,63.11
2022-10-11T04:56:32.174Z,63.22
2022-10-11T04:57:33.643Z,63.27
2022-10-11T04:58:35.302Z,63.31
2022-10-11T04:59:36.769Z,63.06
2022-10-11T05:00:38.220Z,62.93
2022-10-11T05:01:39.813Z,62.69
2022-10-11T05:02:41.311Z,62.61
2022-10-11T05:03:42.802Z,62.49
2022-10-11T05:04:44.261Z,62.41
2022-10-11T05:05:45.724Z,62.24
2022-10-11T05:06:47.202Z,62.09
2022-10-11T05:07:48.646Z,62.21
2022-10-11T05:08:50.326Z,61.93
2022-10-11T05:09:51.914Z,61.95
2022-10-11T05:10:56.950Z,61.80
2022-10-11T05:11:58.499Z,61.82
2022-10-11T05:12:59.947Z,61.75
2022-10-11T05:14:01.388Z,61.83
2022-10-11T05:15:03.168Z,62.00
2022-10-11T05:16:09.560Z,62.07
2022-10-11T05:17:12.439Z,62.02
2022-10-11T05:18:13.966Z,62.04
2022-10-11T05:19:15.398Z,62.07
2022-10-11T05:20:16.858Z,61.89
2022-10-11T05:21:22.655Z,61.66
2022-10-11T05:22:24.266Z,61.63
2022-10-11T05:23:25.876Z,61.77
2022-10-11T05:24:27.467Z,61.79
2022-10-11T05:25:28.947Z,61.85
2022-10-11T05:26:30.802Z,61.88
2022-10-11T05:27:32.361Z,61.95
2022-10-11T05:28:34.050Z,61.92
2022-10-11T05:29:35.573Z,62.01
2022-10-11T05:30:37.048Z,61.79
2022-10-11T05:31:38.551Z,62.19
2022-10-11T05:32:40.078Z,62.09
2022-10-11T05:33:41.690Z,61.97
2022-10-11T05:34:43.155Z,61.96
2022-10-11T05:35:44.675Z,62.14
2022-10-11T05:36:46.141Z,62.18
2022-10-11T05:37:47.628Z,62.19
2022-10-11T05:38:49.084Z,62.29
2022-10-11T05:39:50.660Z,62.39
2022-10-11T05:40:52.209Z,62.15
2022-10-11T05:41:53.746Z,62.31
2022-10-11T05:42:55.258Z,62.39
2022-10-11T05:43:56.710Z,62.22
2022-10-11T05:44:58.142Z,62.08
2022-10-11T05:45:59.710Z,62.15
2022-10-11T05:47:01.203Z,62.02
2022-10-11T05:48:02.683Z,62.00
2022-10-11T05:49:04.197Z,62.02
2022-10-11T05:50:05.811Z,61.88
2022-10-11T05:51:07.723Z,61.84
2022-10-11T05:52:10.704Z,61.85
2022-10-11T05:53:12.126Z,61.69
2022-10-11T05:54:13.574Z,61.68
2022-10-11T05:55:15.080Z,61.59
2022-10-11T05:56:20.286Z,61.38
2022-10-11T05:57:21.797Z,61.47
2022-10-11T05:58:23.290Z,61.42
2022-10-11T05:59:24.752Z,61.33
2022-10-11T06:00:26.233Z,61.34
2022-10-11T06:01:27.804Z,61.39
2022-10-11T06:02:29.318Z,61.52
2022-10-11T06:03:30.762Z,61.45
2022-10-11T06:04:35.784Z,61.48
2022-10-11T06:05:37.289Z,61.21
2022-10-11T06:06:38.737Z,61.13
2022-10-11T06:07:40.378Z,61.10
2022-10-11T06:08:41.843Z,61.01
2022-10-11T06:09:43.278Z,61.05
2022-10-11T06:10:44.845Z,60.91
2022-10-11T06:11:46.519Z,60.68
2022-10-11T06:12:48.414Z,60.64
2022-10-11T06:13:49.925Z,60.69
2022-10-11T06:14:51.378Z,60.72
2022-10-11T06:15:52.806Z,60.75
2022-10-11T06:16:54.253Z,60.68
2022-10-11T06:17:56.031Z,60.70
2022-10-11T06:18:57.641Z,60.51
2022-10-11T06:19:59.152Z,60.36
2022-10-11T06:21:00.675Z,60.51
2022-10-11T06:22:02.183Z,60.25
2022-10-11T06:23:03.673Z,60.48
2022-10-11T06:24:05.374Z,60.46
2022-10-11T06:25:07.243Z,60.35
2022-10-11T06:26:09.804Z,60.33
2022-10-11T06:27:11.928Z,60.37
2022-10-11T06:28:13.450Z,60.33
2022-10-11T06:29:15.096Z,60.30
2022-10-11T06:30:16.572Z,60.02
2022-10-11T06:31:18.023Z,59.91
2022-10-11T06:32:19.591Z,59.93
2022-10-11T06:33:21.075Z,59.90
2022-10-11T06:34:22.761Z,59.96
2022-10-11T06:35:24.265Z,59.93
2022-10-11T06:36:25.894Z,60.07
2022-10-11T06:37:27.340Z,60.22
2022-10-11T06:38:28.830Z,60.37
2022-10-11T06:39:30.322Z,60.13
2022-10-11T06:40:31.792Z,60.25
2022-10-11T06:41:33.330Z,60.32
2022-10-11T06:42:34.888Z,60.37
2022-10-11T06:43:36.386Z,60.88
2022-10-11T06:44:38.263Z,60.74
2022-10-11T06:45:39.747Z,60.21
2022-10-11T06:46:41.248Z,60.39
2022-10-11T06:47:42.771Z,60.31
2022-10-11T06:48:44.531Z,60.38
2022-10-11T06:49:45.981Z,60.46
2022-10-11T06:50:59.576Z,60.46
2022-10-11T06:52:01.614Z,60.31
2022-10-11T06:53:03.094Z,60.33
2022-10-11T06:54:05.279Z,60.73
2022-10-11T06:55:06.868Z,60.13
2022-10-11T06:56:09.952Z,60.30
2022-10-11T06:57:11.868Z,60.55
2022-10-11T06:58:13.361Z,60.55
2022-10-11T06:59:15.087Z,60.04
2022-10-11T07:00:16.743Z,60.14
2022-10-11T07:01:20.202Z,60.97
2022-10-11T07:02:21.782Z,59.92
2022-10-11T07:03:23.321Z,59.79
2022-10-11T07:04:24.770Z,59.62
2022-10-11T07:05:26.311Z,59.45
2022-10-11T07:06:28.299Z,59.32
2022-10-11T07:07:29.857Z,58.31
2022-10-11T07:08:31.411Z,58.60
2022-10-11T07:09:34.176Z,58.09
2022-10-11T07:10:35.734Z,57.76
2022-10-11T07:11:37.281Z,57.40
2022-10-11T07:12:38.752Z,57.77
2022-10-11T07:13:40.230Z,56.67
2022-10-11T07:14:41.824Z,55.91
2022-10-11T07:15:43.260Z,55.82
2022-10-11T07:16:44.710Z,55.46
2022-10-11T07:17:46.498Z,55.71
2022-10-11T07:18:48.163Z,55.44
2022-10-11T07:19:49.638Z,54.60
2022-10-11T07:20:51.090Z,54.30
2022-10-11T07:21:52.597Z,54.72
2022-10-11T07:22:54.544Z,55.56
2022-10-11T07:23:56.053Z,54.67
2022-10-11T07:24:57.589Z,54.28
2022-10-11T07:25:59.083Z,53.92
2022-10-11T07:27:00.578Z,54.10
2022-10-11T07:28:02.067Z,52.53
2022-10-11T07:29:03.701Z,52.48
2022-10-11T07:30:05.575Z,53.16
2022-10-11T07:31:08.024Z,52.78
2022-10-11T07:32:09.483Z,52.84
2022-10-11T07:33:11.054Z,53.31
2022-10-11T07:34:12.555Z,53.24
2022-10-11T07:35:14.051Z,52.59
2022-10-11T07:36:15.550Z,51.75
2022-10-11T07:37:17.016Z,50.98
2022-10-11T07:38:18.520Z,51.18
2022-10-11T07:39:20.035Z,51.28
2022-10-11T07:40:21.470Z,50.11
2022-10-11T07:41:22.952Z,50.27
2022-10-11T07:42:24.394Z,50.21
2022-10-11T07:43:25.859Z,49.90
2022-10-11T07:44:27.391Z,49.93
2022-10-11T07:45:28.944Z,50.00
2022-10-11T07:46:30.570Z,50.22
2022-10-11T07:47:32.202Z,49.95
2022-10-11T07:48:34.019Z,49.54
2022-10-11T07:49:35.545Z,49.30
2022-10-11T07:50:36.992Z,49.42
2022-10-11T07:51:38.422Z,48.68
2022-10-11T07:52:40.569Z,48.37
2022-10-11T07:53:45.932Z,48.48
2022-10-11T07:54:50.497Z,48.72
2022-10-11T07:55:51.979Z,48.63
2022-10-11T07:56:53.436Z,48.23
2022-10-11T07:57:55.150Z,47.46
2022-10-11T07:58:57.391Z,47.85
2022-10-11T07:59:58.875Z,47.67
2022-10-11T08:01:00.559Z,47.47
2022-10-11T08:02:02.136Z,47.05
2022-10-11T08:03:04.267Z,46.78
2022-10-11T08:04:05.953Z,47.23
2022-10-11T08:05:07.555Z,47.35
2022-10-11T08:06:09.706Z,46.99
2022-10-11T08:07:11.548Z,46.46
2022-10-11T08:08:13.026Z,46.69
2022-10-11T08:09:14.666Z,46.83
2022-10-11T08:10:16.110Z,46.36
2022-10-11T08:11:24.116Z,46.10
2022-10-11T08:12:25.641Z,46.43
2022-10-11T08:13:27.139Z,46.16
2022-10-11T08:14:28.596Z,46.31
2022-10-11T08:15:30.073Z,46.03
2022-10-11T08:16:31.969Z,46.28
2022-10-11T08:17:33.446Z,46.01
2022-10-11T08:18:34.952Z,45.85
2022-10-11T08:19:36.400Z,45.72
2022-10-11T08:20:38.619Z,45.16
2022-10-11T08:21:40.131Z,45.12
2022-10-11T08:22:42.048Z,44.24
2022-10-11T08:23:43.555Z,43.80
2022-10-11T08:24:45.063Z,44.05
2022-10-11T08:25:46.967Z,43.91
2022-10-11T08:26:48.456Z,43.94
2022-10-11T08:27:49.918Z,43.71
2022-10-11T08:28:51.389Z,43.68
2022-10-11T08:29:52.874Z,43.72
2022-10-11T08:30:54.725Z,43.43
2022-10-11T08:31:56.480Z,43.44
2022-10-11T08:32:57.976Z,43.28
2022-10-11T08:33:59.407Z,42.97
2022-10-11T08:35:00.960Z,43.44
2022-10-11T08:36:04.316Z,42.60
2022-10-11T08:37:06.180Z,42.55
2022-10-11T08:38:07.679Z,43.04
2022-10-11T08:39:09.210Z,43.02
2022-10-11T08:40:12.447Z,42.52
2022-10-11T08:41:19.586Z,42.50
2022-10-11T08:42:32.362Z,41.42
2022-10-11T08:43:42.832Z,42.09
2022-10-11T08:45:09.572Z,42.49
2022-10-11T08:46:08.604Z,42.27
2022-10-11T08:47:29.328Z,42.61
2022-10-11T08:48:38.429Z,41.44
2022-10-11T08:49:39.882Z,41.54
2022-10-11T08:50:41.410Z,41.46
2022-10-11T08:51:43.727Z,41.31
2022-10-11T08:52:47.554Z,40.99
2022-10-11T08:53:53.317Z,41.41
2022-10-11T08:55:08.310Z,42.04
2022-10-11T08:56:10.924Z,41.98
2022-10-11T08:57:16.643Z,42.25
2022-10-11T08:58:19.706Z,42.19
2022-10-11T08:59:25.282Z,41.89
2022-10-11T09:00:27.886Z,42.98
2022-10-11T09:01:29.479Z,42.74
2022-10-11T09:02:56.078Z,42.98
2022-10-11T09:04:00.162Z,42.50
2022-10-11T09:05:01.991Z,42.63
2022-10-11T09:06:03.875Z,42.57
2022-10-11T09:07:07.527Z,41.98
2022-10-11T09:08:25.021Z,41.86
2022-10-11T09:09:45.095Z,41.49
2022-10-11T09:11:06.731Z,41.94
2022-10-11T09:12:13.883Z,41.25
2022-10-11T09:13:18.345Z,40.81
2022-10-11T09:14:38.264Z,40.78
2022-10-11T09:15:42.471Z,40.46
2022-10-11T09:16:46.746Z,40.39
2022-10-11T09:17:48.144Z,40.61
2022-10-11T09:19:06.754Z,40.67
2022-10-11T09:20:22.746Z,40.25
2022-10-11T09:21:29.995Z,39.97
2022-10-11T09:22:43.664Z,39.60
2022-10-11T09:23:57.513Z,40.17
2022-10-11T09:25:17.352Z,40.40
2022-10-11T09:26:21.158Z,40.92
2022-10-11T09:27:50.276Z,40.90
2022-10-11T09:28:50.652Z,40.96
2022-10-11T09:29:58.182Z,41.41
2022-10-11T09:30:59.691Z,41.28
2022-10-11T09:32:01.212Z,41.73
2022-10-11T09:33:21.323Z,41.81
2022-10-11T09:34:24.298Z,41.49
2022-10-11T09:35:25.826Z,41.27
2022-10-11T09:36:41.176Z,41.42
2022-10-11T09:37:59.442Z,41.50
2022-10-11T09:39:07.875Z,41.48
2022-10-11T09:40:12.154Z,41.32
2022-10-11T09:41:15.203Z,41.70
2022-10-11T09:42:17.180Z,42.03
2022-10-11T09:43:18.724Z,42.12
2022-10-11T09:44:21.899Z,41.37
2022-10-11T09:45:23.750Z,41.41
2022-10-11T09:46:31.425Z,41.45
2022-10-11T09:47:33.095Z,41.75
2022-10-11T09:48:38.754Z,41.56
2022-10-11T09:49:40.951Z,41.49
2022-10-11T09:50:42.452Z,41.66
2022-10-11T09:51:46.071Z,42.09
2022-10-11T09:52:50.886Z,42.13
2022-10-11T09:53:52.328Z,42.10
2022-10-11T09:54:58.042Z,42.11
2022-10-11T09:56:02.975Z,42.18
2022-10-11T09:57:04.678Z,42.07
2022-10-11T09:58:06.699Z,42.08
2022-10-11T09:59:08.457Z,41.81
2022-10-11T10:00:23.347Z,41.67
2022-10-11T10:01:25.172Z,41.59
2022-10-11T10:02:27.434Z,41.37
2022-10-11T10:03:29.864Z,41.58
2022-10-11T10:04:31.421Z,41.00
2022-10-11T10:05:33.812Z,40.91
2022-10-11T10:06:35.314Z,40.96
2022-10-11T10:07:40.945Z,41.07
2022-10-11T10:08:47.609Z,40.76
2022-10-11T10:09:49.753Z,40.54
2022-10-11T10:10:59.433Z,40.39
2022-10-11T10:12:01.283Z,40.52
2022-10-11T10:13:03.850Z,40.62
2022-10-11T10:14:05.294Z,40.45
2022-10-11T10:15:07.664Z,40.58
2022-10-11T10:16:18.287Z,40.75
2022-10-11T10:17:19.746Z,41.24
2022-10-11T10:18:26.172Z,41.45
2022-10-11T10:19:27.630Z,41.42
2022-10-11T10:20:35.343Z,41.40
2022-10-11T10:21:37.471Z,41.54
2022-10-11T10:22:38.923Z,41.93
2022-10-11T10:23:40.684Z,41.89
2022-10-11T10:24:42.475Z,42.10
2022-10-11T10:25:43.947Z,42.75
2022-10-11T10:27:03.867Z,42.48
2022-10-11T10:28:22.273Z,42.55
2022-10-11T10:29:23.871Z,41.77
2022-10-11T10:30:25.317Z,41.24
2022-10-11T10:32:08.783Z,41.56
2022-10-11T10:33:08.561Z,41.52
2022-10-11T10:34:14.168Z,41.60
2022-10-11T10:35:18.532Z,41.25
2022-10-11T10:36:21.833Z,41.05
2022-10-11T10:37:29.604Z,40.83
2022-10-11T10:38:31.373Z,39.98
2022-10-11T10:39:42.387Z,40.18
2022-10-11T10:40:45.654Z,40.17
2022-10-11T10:41:47.484Z,40.89
2022-10-11T10:42:49.699Z,41.06
2022-10-11T10:43:56.002Z,40.55
2022-10-11T10:44:58.640Z,40.50
2022-10-11T10:46:00.346Z,40.17
2022-10-11T10:47:04.594Z,40.18
2022-10-11T10:48:18.307Z,40.19
2022-10-11T10:49:52.443Z,40.28
2022-10-11T10:50:50.788Z,41.28
2022-10-11T10:52:18.624Z,41.77
2022-10-11T10:53:26.043Z,42.20
2022-10-11T10:54:30.312Z,41.82
2022-10-11T10:55:31.792Z,41.84
2022-10-11T10:56:38.259Z,41.56
2022-10-11T10:57:54.636Z,41.83
2022-10-11T10:58:56.041Z,42.14
2022-10-11T11:00:06.581Z,41.42
2022-10-11T11:01:24.096Z,41.48
2022-10-11T11:02:40.362Z,41.52
2022-10-11T11:03:44.301Z,41.60
2022-10-11T11:04:48.323Z,41.98
2022-10-11T11:05:56.009Z,42.12
2022-10-11T11:07:09.861Z,41.59
2022-10-11T11:08:29.918Z,42.22
2022-10-11T11:09:50.366Z,42.45
2022-10-11T11:11:01.381Z,42.17
2022-10-11T11:12:05.913Z,42.00
2022-10-11T11:13:16.278Z,41.89
2022-10-11T11:14:23.819Z,41.81
2022-10-11T11:15:39.067Z,41.55
2022-10-11T11:16:42.570Z,41.97
2022-10-11T11:17:44.054Z,41.96
2022-10-11T11:18:54.355Z,41.99
2022-10-11T11:19:55.795Z,41.94
2022-10-11T11:21:15.617Z,41.68
2022-10-11T11:22:23.220Z,42.41
2022-10-11T11:23:31.890Z,42.17
2022-10-11T11:24:51.566Z,42.36
2022-10-11T11:25:57.312Z,41.62
2022-10-11T11:27:01.430Z,41.95
2022-10-11T11:28:21.602Z,41.74
2022-10-11T11:29:23.124Z,42.17
2022-10-11T11:30:42.795Z,41.76
2022-10-11T11:31:44.235Z,41.36
2022-10-11T11:33:00.795Z,41.41
2022-10-11T11:34:09.945Z,41.52
2022-10-11T11:35:17.093Z,42.05
2022-10-11T11:36:21.099Z,41.73
2022-10-11T11:37:25.575Z,41.46
2022-10-11T11:38:46.948Z,40.73
2022-10-11T11:39:49.138Z,41.57
2022-10-11T11:40:55.059Z,41.44
2022-10-11T11:41:58.086Z,41.12
2022-10-11T11:43:00.243Z,41.44
2022-10-11T11:44:03.395Z,41.03
2022-10-11T11:45:06.072Z,41.29
2022-10-11T11:46:12.874Z,40.68
2022-10-11T11:47:17.931Z,40.97
2022-10-11T11:48:20.218Z,40.50
2022-10-11T11:49:23.893Z,40.83
2022-10-11T11:50:27.866Z,40.57
2022-10-11T11:51:32.760Z,40.76
2022-10-11T11:52:39.629Z,40.69
2022-10-11T11:53:47.502Z,40.94
2022-10-11T11:55:04.137Z,40.39
2022-10-11T11:56:41.064Z,40.60
2022-10-11T11:57:57.800Z,40.94
2022-10-11T11:59:05.399Z,40.91
2022-10-11T12:00:14.151Z,41.38
2022-10-11T12:01:15.588Z,41.27
2022-10-11T12:02:26.302Z,41.04
2022-10-11T12:03:28.692Z,41.06
2022-10-11T12:04:31.731Z,40.24
2022-10-11T12:05:33.972Z,40.60
2022-10-11T12:06:37.879Z,40.81
2022-10-11T12:07:50.486Z,40.48
2022-10-11T12:09:21.573Z,40.58
2022-10-11T12:10:25.999Z,40.25
2022-10-11T12:11:36.719Z,40.44
2022-10-11T12:12:38.256Z,40.45
2022-10-11T12:13:40.722Z,40.88
2022-10-11T12:14:42.578Z,40.54
2022-10-11T12:16:00.331Z,40.04
2022-10-11T12:17:07.495Z,39.86
2022-10-11T12:18:13.639Z,39.98
2022-10-11T12:19:15.124Z,39.81
2022-10-11T12:20:20.974Z,40.29
2022-10-11T12:21:35.505Z,40.10
2022-10-11T12:22:38.399Z,39.03
2022-10-11T12:23:41.298Z,39.11
2022-10-11T12:25:02.032Z,39.69
2022-10-11T12:26:22.259Z,40.27
2022-10-11T12:27:36.860Z,40.42
2022-10-11T12:28:41.180Z,40.35
2022-10-11T12:29:48.992Z,39.88
2022-10-11T12:30:51.313Z,40.11
2022-10-11T12:31:58.791Z,39.39
2022-10-11T12:33:11.094Z,39.62
2022-10-11T12:34:21.261Z,39.40
2022-10-11T12:35:32.275Z,39.79
2022-10-11T12:36:34.093Z,39.62
2022-10-11T12:37:35.569Z,39.67
2022-10-11T12:38:38.464Z,39.87
2022-10-11T12:39:44.753Z,39.26
2022-10-11T12:40:47.258Z,38.92
2022-10-11T12:41:49.806Z,39.09
2022-10-11T12:43:11.710Z,39.17
2022-10-11T12:44:19.029Z,39.91
2022-10-11T12:45:20.433Z,39.60
2022-10-11T12:46:28.041Z,39.56
2022-10-11T12:47:35.743Z,39.55
2022-10-11T12:48:45.318Z,39.11
2022-10-11T12:49:49.860Z,39.03
2022-10-11T12:51:10.125Z,39.21
2022-10-11T12:52:17.840Z,39.15
2022-10-11T12:53:29.559Z,39.25
2022-10-11T12:54:40.013Z,39.10
2022-10-11T12:55:41.432Z,38.45
2022-10-11T12:56:42.879Z,38.67
2022-10-11T12:57:56.883Z,38.66
2022-10-11T12:59:01.634Z,38.10
2022-10-11T13:00:17.135Z,38.35
2022-10-11T13:01:19.627Z,38.37
2022-10-11T13:02:29.149Z,38.65
2022-10-11T13:03:34.454Z,38.86
2022-10-11T13:04:35.898Z,38.85
2022-10-11T13:05:45.186Z,38.99
2022-10-11T13:06:53.601Z,38.26
2022-10-11T13:07:55.714Z,38.92
2022-10-11T13:08:57.252Z,39.01
2022-10-11T13:09:58.731Z,39.25
2022-10-11T13:11:04.634Z,37.89
2022-10-11T13:12:07.236Z,37.67
2022-10-11T13:13:09.999Z,38.40
2022-10-11T13:14:18.266Z,38.93
2022-10-11T13:15:20.683Z,38.75
2022-10-11T13:16:42.102Z,38.27
2022-10-11T13:17:43.710Z,38.24
2022-10-11T13:18:45.939Z,37.79
2022-10-11T13:19:50.793Z,38.09
2022-10-11T13:20:52.291Z,38.00
2022-10-11T13:21:54.710Z,37.72
2022-10-11T13:22:56.263Z,37.53
2022-10-11T13:23:58.655Z,37.14
2022-10-11T13:25:00.105Z,36.96
2022-10-11T13:26:01.675Z,36.30
2022-10-11T13:27:03.186Z,36.49
2022-10-11T13:28:04.767Z,36.33
2022-10-11T13:29:12.086Z,36.79
2022-10-11T13:30:20.739Z,37.20
2022-10-11T13:31:23.223Z,37.43
2022-10-11T13:32:25.295Z,37.14
2022-10-11T13:33:33.197Z,37.63
2022-10-11T13:34:36.368Z,37.39
2022-10-11T13:35:38.080Z,37.62
2022-10-11T13:36:39.560Z,37.51
2022-10-11T13:37:42.480Z,37.68
2022-10-11T13:38:50.054Z,37.50
2022-10-11T13:39:51.912Z,37.31
2022-10-11T13:40:53.742Z,37.51
2022-10-11T13:41:55.782Z,37.13
2022-10-11T13:42:57.325Z,37.27
2022-10-11T13:43:59.307Z,37.09
2022-10-11T13:45:00.875Z,37.07
2022-10-11T13:46:05.108Z,36.92
2022-10-11T13:47:06.892Z,37.36
2022-10-11T13:48:14.618Z,37.40
2022-10-11T13:49:37.583Z,37.64